Time;durP1;ratioP1;P1;durP2;ratioP2;P2;SDS_P1;SDS_P2;PMS_P1;PMS_P2;Temp;Humidity;BMP_temperature;BMP_pressure;BME280_temperature;BME280_humidity;BME280_pressure;Samples;Min_cycle;Max_cycle;Signal;HPM_P1;HPM_P2
2021/01/11 00:00:24;;;;;;;12.60;7.43;;;;;;;-3.88;72.06;93343.75;1797607;79;21216;-79
2021/01/11 00:02:52;;;;;;;11.90;7.33;;;;;;;-3.87;71.08;93355.16;1779085;80;21191;-78
2021/01/11 00:05:20;;;;;;;83.67;39.00;;;;;;;-3.93;70.97;93347.33;1779016;79;21196;-81
2021/01/11 00:07:48;;;;;;;87.93;42.73;;;;;;;-3.93;71.90;93351.86;1840182;77;21379;-78
2021/01/11 00:10:17;;;;;;;108.10;50.43;;;;;;;-3.97;72.50;93344.27;1761565;80;21429;-76
2021/01/11 00:12:45;;;;;;;91.87;46.10;;;;;;;-4.01;72.92;93342.77;1824222;78;21271;-81
2021/01/11 00:15:15;;;;;;;85.37;38.57;;;;;;;-4.02;73.28;93347.06;1743900;82;21474;-77
2021/01/11 00:17:43;;;;;;;58.20;30.83;;;;;;;-4.01;73.74;93343.31;1836502;77;21191;-75
2021/01/11 00:20:12;;;;;;;90.77;44.27;;;;;;;-4.01;73.98;93363.23;1775752;77;21300;-75
2021/01/11 00:22:43;;;;;;;58.97;29.27;;;;;;;-4.02;73.91;93344.41;1766136;80;21259;-78
2021/01/11 00:25:12;;;;;;;51.33;25.47;;;;;;;-4.00;73.67;93337.69;1817136;78;21195;-79
2021/01/11 00:27:41;;;;;;;60.53;30.27;;;;;;;-4.03;73.67;93334.85;1826812;77;21220;-77
2021/01/11 00:30:10;;;;;;;50.93;27.27;;;;;;;-4.08;74.03;93337.10;1806628;79;21091;-79
2021/01/11 00:32:38;;;;;;;46.57;21.93;;;;;;;-4.10;74.29;93330.52;1787741;78;21532;-79
2021/01/11 00:35:07;;;;;;;42.90;19.60;;;;;;;-4.12;74.55;93336.70;1785190;78;21203;-76
2021/01/11 00:37:36;;;;;;;44.67;20.03;;;;;;;-4.13;74.59;93345.21;1777491;80;21180;-78
2021/01/11 00:40:07;;;;;;;46.17;20.53;;;;;;;-4.14;74.53;93352.92;1741979;80;21207;-76
2021/01/11 00:42:36;;;;;;;48.83;22.33;;;;;;;-4.11;74.55;93336.38;1788282;79;21183;-74
2021/01/11 00:45:07;;;;;;;49.00;23.20;;;;;;;-4.08;74.94;93313.75;1774336;79;21381;-79
2021/01/11 00:47:40;;;;;;;51.63;23.50;;;;;;;-4.01;75.03;93304.25;1754516;79;21174;-75
2021/01/11 00:50:12;;;;;;;49.80;21.63;;;;;;;-3.94;74.77;93305.92;1753024;81;21131;-78
2021/01/11 00:52:42;;;;;;;46.23;20.93;;;;;;;-3.93;74.52;93319.44;1788571;78;21199;-78
2021/01/11 00:55:13;;;;;;;54.30;23.83;;;;;;;-3.94;74.62;93321.86;1806847;78;21215;-79
2021/01/11 00:57:44;;;;;;;55.53;24.73;;;;;;;-3.92;74.72;93336.15;1747304;79;21312;-78
2021/01/11 01:00:14;;;;;;;48.27;20.90;;;;;;;-3.93;74.73;93333.27;1743757;82;21197;-78
2021/01/11 01:02:44;;;;;;;38.43;18.60;;;;;;;-3.96;74.68;93328.01;1815454;77;21198;-75
2021/01/11 01:05:12;;;;;;;40.80;19.83;;;;;;;-4.01;74.00;93328.16;1801891;78;21224;-77
2021/01/11 01:07:43;;;;;;;45.83;20.60;;;;;;;-4.04;73.84;93320.02;1834550;77;21162;-76
2021/01/11 01:10:11;;;;;;;50.33;21.40;;;;;;;-4.02;73.91;93325.81;1848314;76;22263;-82
2021/01/11 01:12:40;;;;;;;46.93;22.27;;;;;;;-3.98;74.39;93328.09;1840635;77;21167;-74
2021/01/11 01:15:09;;;;;;;69.50;31.37;;;;;;;-3.97;74.28;93328.33;1853558;76;21645;-77
2021/01/11 01:17:38;;;;;;;69.37;32.03;;;;;;;-3.97;74.07;93330.44;1792913;78;21198;-74
2021/01/11 01:20:17;;;;;;;55.43;27.63;;;;;;;-3.95;74.51;93333.58;1812829;76;21222;-74
2021/01/11 01:22:46;;;;;;;45.30;20.70;;;;;;;-3.98;74.71;93318.80;1809967;77;21262;-77
2021/01/11 01:25:14;;;;;;;31.73;16.23;;;;;;;-3.99;74.92;93318.54;1850919;76;21278;-76
2021/01/11 01:27:42;;;;;;;36.07;16.87;;;;;;;-4.01;74.90;93314.88;1803382;78;21487;-73
2021/01/11 01:30:10;;;;;;;34.50;16.93;;;;;;;-4.02;74.98;93311.98;1841019;76;21167;-80
2021/01/11 01:32:39;;;;;;;35.53;17.73;;;;;;;-4.00;75.09;93317.77;1797402;76;21192;-79
2021/01/11 01:35:09;;;;;;;33.67;17.70;;;;;;;-3.98;75.05;93326.77;1784165;79;22480;-78
2021/01/11 01:37:37;;;;;;;32.73;17.40;;;;;;;-3.98;74.96;93322.23;1846692;76;21163;-75
2021/01/11 01:40:06;;;;;;;35.93;17.53;;;;;;;-3.97;74.80;93323.02;1834848;76;21175;-79
2021/01/11 01:42:33;;;;;;;32.00;17.30;;;;;;;-3.98;74.96;93307.63;1783067;80;21194;-79
2021/01/11 01:45:01;;;;;;;32.53;16.17;;;;;;;-3.96;75.07;93298.79;1861158;75;21711;-76
2021/01/11 01:47:29;;;;;;;32.67;16.97;;;;;;;-3.94;75.25;93297.95;1803655;78;21802;-75
2021/01/11 01:49:57;;;;;;;28.70;14.77;;;;;;;-3.97;75.20;93297.23;1803811;77;21196;-75
2021/01/11 01:52:25;;;;;;;32.20;16.23;;;;;;;-3.96;75.36;93296.69;1820454;75;21465;-77
2021/01/11 01:54:54;;;;;;;36.20;19.63;;;;;;;-3.97;75.43;93289.27;1873533;76;21182;-76
2021/01/11 01:57:21;;;;;;;38.63;20.77;;;;;;;-3.95;75.56;93286.28;1818429;76;21201;-77
2021/01/11 01:59:49;;;;;;;20.33;11.23;;;;;;;-3.94;75.57;93276.70;1774132;80;21640;-76
2021/01/11 02:02:18;;;;;;;33.13;17.23;;;;;;;-3.88;74.96;93269.91;1768540;79;21171;-77
2021/01/11 02:04:46;;;;;;;39.33;17.87;;;;;;;-3.82;74.96;93278.77;1814943;78;21191;-78
2021/01/11 02:07:46;;;;;;;24.83;13.80;;;;;;;-3.79;74.96;93278.16;1822731;75;21474;-79
2021/01/11 02:10:37;;;;;;;22.63;12.70;;;;;;;-3.79;75.05;93294.64;1838458;76;21407;-75
2021/01/11 02:13:05;;;;;;;28.93;15.73;;;;;;;-3.82;75.12;93295.25;1879703;76;21292;-80
2021/01/11 02:15:54;;;;;;;23.17;12.57;;;;;;;-3.84;75.27;93290.23;1845165;77;21669;-76
2021/01/11 02:18:30;;;;;;;27.83;15.03;;;;;;;-3.83;75.28;93282.52;1831098;77;21176;-78
2021/01/11 02:21:09;;;;;;;27.40;15.17;;;;;;;-3.85;75.22;93288.67;1847095;77;21631;-76
2021/01/11 02:23:57;;;;;;;32.27;15.97;;;;;;;-3.86;75.36;93291.09;1815950;75;21167;-77
2021/01/11 02:27:04;;;;;;;29.67;15.33;;;;;;;-3.87;75.44;93294.05;1831215;77;22099;-77
2021/01/11 02:30:25;;;;;;;29.87;16.10;;;;;;;-3.90;75.53;93283.51;1857998;76;21172;-77
2021/01/11 02:33:08;;;;;;;32.33;17.53;;;;;;;-3.90;75.74;93282.18;1818446;78;21195;-76
2021/01/11 02:35:53;;;;;;;31.37;16.97;;;;;;;-3.85;75.97;93277.27;1817276;77;21355;-76
2021/01/11 02:38:21;;;;;;;;;;;;;;;-3.84;76.06;93277.50;1786723;76;21202;-76
2021/01/11 02:40:49;;;;;;;34.60;17.63;;;;;;;-3.82;76.08;93272.13;1909423;75;22190;-77
2021/01/11 02:43:16;;;;;;;37.40;18.30;;;;;;;-3.81;76.19;93263.59;1859337;74;21150;-74
2021/01/11 02:45:45;;;;;;;40.33;20.77;;;;;;;-3.77;76.25;93261.89;1882984;75;21096;-76
2021/01/11 02:48:28;;;;;;;48.13;22.07;;;;;;;-3.74;76.10;93251.97;1840462;76;48056;-77
2021/01/11 02:51:23;;;;;;;41.27;20.53;;;;;;;-3.74;75.97;93250.09;1800706;78;21087;-75
2021/01/11 02:54:16;;;;;;;36.60;18.00;;;;;;;-3.75;76.00;93255.73;1811425;78;21196;-75
2021/01/11 02:57:00;;;;;;;32.40;16.47;;;;;;;-3.78;76.02;93251.03;1771200;79;21313;-75
2021/01/11 02:59:34;;;;;;;35.13;18.33;;;;;;;-3.81;76.18;93243.13;1815907;79;21120;-75
2021/01/11 03:02:06;;;;;;;36.85;18.90;;;;;;;-3.83;76.32;93238.68;1760852;80;21611;-76
2021/01/11 03:04:33;;;;;;;34.97;18.30;;;;;;;-3.81;76.44;93248.44;1802923;78;21113;-77
2021/01/11 03:07:05;;;;;;;31.77;17.17;;;;;;;-3.76;76.32;93242.19;1750411;78;21459;-75
2021/01/11 03:09:36;;;;;;;32.87;17.13;;;;;;;-3.77;76.07;93240.63;1824696;78;21088;-77
2021/01/11 03:12:04;;;;;;;28.57;16.27;;;;;;;-3.81;76.25;93241.02;1800812;79;21172;-77
2021/01/11 03:14:32;;;;;;;33.67;17.63;;;;;;;-3.85;76.35;93236.86;1807518;77;21984;-76
2021/01/11 03:16:59;;;;;;;32.73;17.90;;;;;;;-3.86;76.56;93248.59;1851600;77;21155;-76
2021/01/11 03:19:27;;;;;;;29.00;15.67;;;;;;;-3.82;76.70;93251.41;1821026;77;21222;-76
2021/01/11 03:21:55;;;;;;;28.60;16.33;;;;;;;-3.78;76.67;93247.82;1803835;76;21497;-76
2021/01/11 03:24:23;;;;;;;32.60;19.63;;;;;;;-3.75;76.63;93244.55;1782838;78;21202;-76
2021/01/11 03:26:51;;;;;;;31.57;19.10;;;;;;;-3.75;76.56;93238.46;1839832;76;21155;-77
2021/01/11 03:29:19;;;;;;;29.80;16.50;;;;;;;-3.75;76.56;93243.77;1839617;77;21617;-76
2021/01/11 03:31:47;;;;;;;28.60;15.37;;;;;;;-3.77;76.54;93241.96;1794681;77;21371;-75
2021/01/11 03:34:15;;;;;;;20.03;12.23;;;;;;;-3.80;76.72;93244.71;1789078;79;21254;-75
2021/01/11 03:36:43;;;;;;;22.13;12.43;;;;;;;-3.79;76.77;93242.28;1833478;77;21417;-77
2021/01/11 03:39:11;;;;;;;20.23;12.87;;;;;;;-3.80;76.30;93230.09;1840309;77;21187;-75
2021/01/11 03:41:41;;;;;;;26.57;13.33;;;;;;;-3.82;76.42;93230.16;1827120;78;21693;-76
2021/01/11 03:44:11;;;;;;;27.30;15.40;;;;;;;-3.82;76.42;93232.81;1840182;77;21645;-75
2021/01/11 03:46:40;;;;;;;26.87;13.87;;;;;;;-3.84;76.55;93234.44;1800001;77;21151;-75
2021/01/11 03:49:08;;;;;;;25.67;13.10;;;;;;;-3.82;76.67;93229.61;1837436;76;21166;-76
2021/01/11 03:51:35;;;;;;;22.67;13.43;;;;;;;-3.83;76.76;93224.06;1852777;76;21426;-76
2021/01/11 03:54:04;;;;;;;25.67;14.37;;;;;;;-3.84;76.96;93218.50;1825910;78;21228;-76
2021/01/11 03:56:32;;;;;;;30.50;16.37;;;;;;;-3.84;77.01;93231.78;1845349;77;21638;-75
2021/01/11 03:59:00;;;;;;;34.20;17.57;;;;;;;-3.84;76.97;93223.81;1849927;76;21263;-75
2021/01/11 04:01:28;;;;;;;31.47;16.43;;;;;;;-3.82;76.89;93228.83;1872879;76;21147;-75
2021/01/11 04:03:56;;;;;;;30.90;15.90;;;;;;;-3.81;76.86;93239.14;1881725;75;21681;-76
2021/01/11 04:06:23;;;;;;;28.00;14.53;;;;;;;-3.81;76.90;93234.38;1816004;77;21141;-76
2021/01/11 04:08:51;;;;;;;25.13;13.80;;;;;;;-3.83;76.91;93233.36;1807578;78;21423;-77
2021/01/11 04:11:20;;;;;;;25.20;15.50;;;;;;;-3.84;77.01;93229.67;1836864;78;21691;-75
2021/01/11 04:13:48;;;;;;;29.10;15.43;;;;;;;-3.87;76.99;93232.94;1866938;76;21237;-76
2021/01/11 04:16:17;;;;;;;29.50;14.80;;;;;;;-3.89;77.17;93228.50;1824606;78;21163;-76
2021/01/11 04:18:45;;;;;;;30.50;14.93;;;;;;;-3.92;77.23;93220.05;1814825;77;21176;-76
2021/01/11 04:21:14;;;;;;;29.17;15.40;;;;;;;-3.86;76.92;93227.89;1810880;78;22557;-74
2021/01/11 04:23:42;;;;;;;29.40;15.20;;;;;;;-3.82;76.59;93228.83;1836792;78;21176;-76
2021/01/11 04:26:10;;;;;;;22.50;12.80;;;;;;;-3.79;76.49;93224.23;1866967;76;21123;-77
2021/01/11 04:28:38;;;;;;;22.43;12.10;;;;;;;-3.79;76.41;93224.23;1822394;78;21226;-76
2021/01/11 04:31:06;;;;;;;27.97;13.13;;;;;;;-3.80;76.20;93216.00;1812260;77;21165;-78
2021/01/11 04:33:37;;;;;;;22.00;11.90;;;;;;;-3.77;76.11;93222.81;1794609;78;22093;-77
2021/01/11 04:36:05;;;;;;;26.67;12.73;;;;;;;-3.74;76.32;93221.42;1843141;77;21161;-76
2021/01/11 04:38:33;;;;;;;41.73;16.93;;;;;;;-3.74;76.10;93224.08;1775928;80;21095;-76
2021/01/11 04:41:02;;;;;;;49.53;22.00;;;;;;;-3.76;76.22;93220.41;1843025;77;21099;-76
2021/01/11 04:43:35;;;;;;;37.77;17.53;;;;;;;-3.76;76.14;93227.58;1799134;78;21546;-76
2021/01/11 04:46:02;;;;;;;34.63;14.50;;;;;;;-3.76;76.29;93216.42;1806540;77;21621;-75
2021/01/11 04:48:32;;;;;;;32.33;15.20;;;;;;;-3.76;76.27;93223.59;1841858;77;21136;-76
2021/01/11 04:51:01;;;;;;;24.03;12.10;;;;;;;-3.77;76.18;93219.38;1831266;78;21110;-78
2021/01/11 04:53:28;;;;;;;17.73;10.53;;;;;;;-3.78;76.06;93217.27;1902106;75;21075;-75
2021/01/11 04:55:57;;;;;;;17.00;10.17;;;;;;;-3.78;76.10;93219.14;1807492;76;21662;-75
2021/01/11 04:58:26;;;;;;;23.10;11.27;;;;;;;-3.78;75.89;93216.48;1808342;78;21630;-76
2021/01/11 05:00:53;;;;;;;21.33;10.77;;;;;;;-3.79;75.88;93218.92;1801450;77;21084;-77
2021/01/11 05:03:21;;;;;;;24.40;13.57;;;;;;;-3.82;75.95;93220.31;1732102;78;21586;-78
2021/01/11 05:05:48;;;;;;;19.93;10.80;;;;;;;-3.85;76.23;93219.59;1816534;78;21107;-76
2021/01/11 05:08:16;;;;;;;20.43;11.50;;;;;;;-3.83;76.03;93216.09;1786101;78;21642;-77
2021/01/11 05:10:44;;;;;;;21.90;11.10;;;;;;;-3.79;75.76;93208.29;1866823;75;21599;-76
2021/01/11 05:13:12;;;;;;;19.80;10.97;;;;;;;-3.76;75.92;93208.45;1876344;75;21118;-76
2021/01/11 05:15:41;;;;;;;21.77;11.80;;;;;;;-3.74;75.93;93207.58;1863993;75;21087;-76
2021/01/11 05:18:09;;;;;;;22.17;11.43;;;;;;;-3.73;75.94;93200.39;1928446;74;21063;-77
2021/01/11 05:20:37;;;;;;;19.37;11.17;;;;;;;-3.70;75.95;93205.86;1854558;77;21122;-76
2021/01/11 05:23:15;;;;;;;28.43;11.77;;;;;;;-3.68;75.85;93202.36;1867209;76;21341;-76
2021/01/11 05:25:44;;;;;;;21.80;12.37;;;;;;;-3.69;75.78;93202.11;1821220;76;21192;-76
2021/01/11 05:28:17;;;;;;;19.10;11.10;;;;;;;-3.70;75.92;93210.40;1802587;78;21163;-75
2021/01/11 05:30:49;;;;;;;22.90;13.22;;;;;;;-3.69;75.92;93206.64;1851041;77;21234;-77
2021/01/11 05:33:24;;;;;;;21.00;11.03;;;;;;;-3.66;75.92;93202.81;1818598;78;21179;-76
2021/01/11 05:36:12;;;;;;;19.70;10.55;;;;;;;-3.65;75.88;93206.25;1816535;78;22208;-76
2021/01/11 05:38:46;;;;;;;17.23;10.37;;;;;;;-3.66;76.03;93212.12;1812710;79;21120;-75
2021/01/11 05:41:21;;;;;;;19.97;10.33;;;;;;;-3.65;75.75;93204.92;1860850;76;21092;-74
2021/01/11 05:43:52;;;;;;;24.40;11.50;;;;;;;-3.67;75.81;93213.22;1853073;76;21104;-77
2021/01/11 05:46:28;;;;;;;33.40;13.20;;;;;;;-3.68;75.82;93215.65;1839402;76;21076;-75
2021/01/11 05:49:00;;;;;;;32.47;16.10;;;;;;;-3.66;75.95;93214.00;1862630;76;21452;-75
2021/01/11 05:51:28;;;;;;;28.63;14.53;;;;;;;-3.68;76.10;93214.88;1787026;77;21203;-75
2021/01/11 05:53:56;;;;;;;25.90;13.67;;;;;;;-3.68;75.89;93217.53;1851230;76;21155;-77
2021/01/11 05:56:24;;;;;;;31.93;15.90;;;;;;;-3.68;76.00;93220.97;1823386;77;21158;-77
2021/01/11 05:59:08;;;;;;;24.93;13.40;;;;;;;-3.69;76.17;93218.59;1839967;77;21166;-75
2021/01/11 06:01:37;;;;;;;24.97;14.30;;;;;;;-3.72;76.22;93220.58;1819798;76;21222;-75
2021/01/11 06:04:05;;;;;;;26.40;13.87;;;;;;;-3.76;76.39;93229.71;1791082;79;21260;-76
2021/01/11 06:06:33;;;;;;;29.93;17.70;;;;;;;-3.76;76.64;93222.26;1831768;76;21190;-77
2021/01/11 06:09:01;;;;;;;31.70;16.40;;;;;;;-3.75;76.71;93231.81;1834314;78;21162;-76
2021/01/11 06:11:28;;;;;;;48.57;26.23;;;;;;;-3.78;76.72;93229.22;1785076;77;21581;-76
2021/01/11 06:13:59;;;;;;;37.87;20.87;;;;;;;-3.77;76.87;93233.44;1847720;77;21450;-76
2021/01/11 06:16:28;;;;;;;32.30;16.70;;;;;;;-3.75;76.90;93240.57;1811745;76;21213;-75
2021/01/11 06:18:56;;;;;;;26.63;14.93;;;;;;;-3.73;76.98;93238.37;1844955;77;21182;-75
2021/01/11 06:21:24;;;;;;;25.23;12.90;;;;;;;-3.73;76.93;93243.68;1833660;76;21171;-75
2021/01/11 06:24:16;;;;;;;26.03;14.20;;;;;;;-3.74;76.81;93244.00;1818513;76;21198;-75
2021/01/11 06:26:45;;;;;;;25.27;14.03;;;;;;;-3.74;76.81;93244.78;1823723;78;21405;-76
2021/01/11 06:29:27;;;;;;;28.23;14.67;;;;;;;-3.76;76.87;93244.33;1795627;79;21159;-76
2021/01/11 06:32:21;;;;;;;25.63;13.73;;;;;;;-3.71;77.15;93256.67;1838892;77;22261;-76
2021/01/11 06:34:48;;;;;;;20.93;12.30;;;;;;;-3.69;77.26;93255.80;1775914;79;21417;-76
2021/01/11 06:37:21;;;;;;;23.83;13.57;;;;;;;-3.67;77.22;93252.30;1774621;80;21726;-76
2021/01/11 06:39:48;;;;;;;25.43;13.50;;;;;;;-3.65;77.00;93251.44;1762390;81;21200;-78
2021/01/11 06:42:16;;;;;;;26.40;14.03;;;;;;;-3.61;76.85;93258.23;1798213;79;21182;-79
2021/01/11 06:44:47;;;;;;;32.57;14.77;;;;;;;-3.56;76.84;93266.09;1779440;80;21421;-79
2021/01/11 06:47:28;;;;;;;36.17;17.10;;;;;;;-3.53;76.98;93266.80;1767226;81;21159;-74
2021/01/11 06:50:06;;;;;;;44.53;17.30;;;;;;;-3.48;76.74;93270.08;1801972;79;21450;-77
2021/01/11 06:52:36;;;;;;;36.17;16.60;;;;;;;-3.44;76.54;93278.22;1740443;79;21226;-77
2021/01/11 06:55:12;;;;;;;32.97;17.10;;;;;;;-3.41;76.40;93270.95;1768396;78;21198;-76
2021/01/11 07:00:39;;;;;;;34.73;19.53;;;;;;;-3.37;76.21;93276.44;1870591;76;23575;-78
2021/01/11 07:03:07;;;;;;;38.73;17.67;;;;;;;-3.40;76.48;93275.17;1832334;78;21177;-78
2021/01/11 07:05:38;;;;;;;25.57;14.07;;;;;;;-3.42;76.56;93286.13;1767130;79;22081;-77
2021/01/11 07:08:20;;;;;;;25.40;16.00;;;;;;;-3.46;76.62;93279.88;1790420;76;21127;-78
2021/01/11 07:10:54;;;;;;;28.37;15.60;;;;;;;-3.46;76.58;93277.73;1876829;76;21201;-77
2021/01/11 07:13:24;;;;;;;29.10;14.97;;;;;;;-3.40;76.75;93283.15;1864641;76;21228;-77
2021/01/11 07:15:57;;;;;;;26.47;14.03;;;;;;;-3.35;76.40;93275.56;1858172;77;21452;-78
2021/01/11 07:18:42;;;;;;;25.77;14.30;;;;;;;-3.32;76.20;93281.59;1815559;78;21372;-78
2021/01/11 07:21:13;;;;;;;26.27;16.17;;;;;;;-3.31;76.01;93281.30;1779841;78;21239;-76
2021/01/11 07:23:41;;;;;;;29.90;15.77;;;;;;;-3.27;76.24;93291.55;1831404;76;22013;-76
2021/01/11 07:26:20;;;;;;;25.97;14.50;;;;;;;-3.28;76.38;93277.22;1844024;77;21152;-75
2021/01/11 07:28:59;;;;;;;28.93;16.70;;;;;;;-3.24;76.14;93284.25;1830124;77;21199;-77
2021/01/11 07:31:43;;;;;;;33.17;17.83;;;;;;;-3.24;76.27;93282.92;1801900;79;22673;-75
2021/01/11 07:34:16;;;;;;;37.50;18.50;;;;;;;-3.21;76.36;93286.84;1798569;79;21219;-77
2021/01/11 07:36:50;;;;;;;35.28;19.75;;;;;;;-3.21;76.54;93287.63;1874640;76;21087;-76
2021/01/11 07:39:29;;;;;;;26.67;16.50;;;;;;;-3.18;76.50;93290.22;1865766;76;21701;-77
2021/01/11 07:42:01;;;;;;;40.53;19.83;;;;;;;-3.18;76.46;93294.98;1871029;76;21163;-74
2021/01/11 07:44:37;;;;;;;42.30;21.47;;;;;;;-3.19;76.39;93297.42;1870858;76;21256;-77
2021/01/11 07:47:14;;;;;;;30.53;17.80;;;;;;;-3.18;76.36;93298.97;1867125;76;21147;-76
2021/01/11 07:49:50;;;;;;;25.67;14.53;;;;;;;-3.14;76.16;93293.03;1873459;76;21225;-79
2021/01/11 07:52:21;;;;;;;43.43;18.93;;;;;;;-3.15;75.80;93292.81;1863814;76;21161;-78
2021/01/11 07:55:03;;;;;;;33.30;17.93;;;;;;;-3.15;75.73;93298.91;1876569;76;21210;-75
2021/01/11 07:57:31;;;;;;;33.83;19.57;;;;;;;-3.11;75.77;93300.39;1865728;76;21449;-76
2021/01/11 08:00:10;;;;;;;31.67;18.60;;;;;;;-3.09;75.95;93304.84;1863043;76;21187;-78
2021/01/11 08:02:46;;;;;;;36.43;18.83;;;;;;;-3.10;75.82;93300.08;1863918;76;21364;-76
2021/01/11 08:05:24;;;;;;;33.47;19.23;;;;;;;-3.12;75.96;93303.61;1863608;76;21610;-77
2021/01/11 08:08:02;;;;;;;27.40;15.60;;;;;;;-3.10;75.99;93310.72;1863170;76;21164;-78
2021/01/11 08:10:38;;;;;;;44.70;21.83;;;;;;;-3.02;75.43;93301.17;1848981;77;22639;-78
2021/01/11 08:13:07;;;;;;;26.37;16.20;;;;;;;-3.06;75.27;93308.22;1826490;77;21082;-82
2021/01/11 08:15:35;;;;;;;33.33;17.60;;;;;;;-3.03;75.20;93304.94;1819972;78;21364;-82
2021/01/11 08:18:03;;;;;;;30.07;17.20;;;;;;;-3.01;75.12;93305.39;1821975;78;21188;-81
2021/01/11 08:20:31;;;;;;;24.13;13.50;;;;;;;-2.97;75.00;93307.66;1812211;78;21292;-81
2021/01/11 08:23:11;;;;;;;24.00;12.03;;;;;;;-2.99;74.69;93307.98;1764461;81;21153;-79
2021/01/11 08:25:40;;;;;;;23.17;13.00;;;;;;;-3.02;74.15;93306.49;1828860;77;21508;-79
2021/01/11 08:28:09;;;;;;;21.53;13.40;;;;;;;-3.04;74.15;93300.72;1851030;77;21347;-80
2021/01/11 08:30:37;;;;;;;25.03;11.70;;;;;;;-3.05;74.53;93310.55;1810342;76;21947;-80
2021/01/11 08:33:08;;;;;;;17.63;10.93;;;;;;;-3.03;74.03;93312.36;1804275;76;22138;-82
2021/01/11 08:35:37;;;;;;;18.90;11.27;;;;;;;-3.07;73.32;93314.08;1858859;76;21273;-79
2021/01/11 08:38:08;;;;;;;18.77;12.03;;;;;;;-3.09;73.29;93318.14;1817462;78;21967;-79
2021/01/11 08:40:34;;;;;;;21.00;12.77;;;;;;;-3.08;73.23;93317.84;1858946;77;21400;-79
2021/01/11 08:43:19;;;;;;;26.77;16.13;;;;;;;-3.07;73.50;93314.64;1798040;77;21536;-81
2021/01/11 08:45:46;;;;;;;23.87;12.87;;;;;;;-3.11;73.72;93311.81;1852917;76;21170;-80
2021/01/11 08:48:16;;;;;;;19.37;12.13;;;;;;;-3.14;74.05;93313.77;1853883;76;21155;-81
2021/01/11 08:50:57;;;;;;;21.40;14.03;;;;;;;-3.15;74.02;93312.76;1782953;78;21218;-79
2021/01/11 08:53:32;;;;;;;25.50;14.97;;;;;;;-3.13;74.17;93318.53;1779010;76;21204;-81
2021/01/11 08:56:08;;;;;;;25.27;15.35;;;;;;;-3.11;74.59;93319.02;1876981;76;21538;-82
2021/01/11 08:58:37;;;;;;;22.80;13.47;;;;;;;-3.05;74.85;93319.08;1778972;77;21649;-79
2021/01/11 09:01:16;;;;;;;25.47;14.67;;;;;;;-2.95;74.68;93317.45;1804651;77;21180;-83
2021/01/11 09:03:55;;;;;;;28.07;15.77;;;;;;;-2.87;74.66;93325.20;1849007;77;21172;-85
2021/01/11 09:06:41;;;;;;;29.07;16.17;;;;;;;-2.82;74.62;93313.87;1849499;77;22115;-82
2021/01/11 09:09:16;;;;;;;24.67;14.87;;;;;;;-2.77;74.64;93318.24;1860301;75;21572;-81
2021/01/11 09:11:48;;;;;;;24.43;13.87;;;;;;;-2.70;74.19;93315.34;1886174;75;21699;-81
2021/01/11 09:14:17;;;;;;;24.50;14.30;;;;;;;-2.65;74.33;93320.27;1859747;77;21156;-79
2021/01/11 09:16:46;;;;;;;24.70;12.40;;;;;;;-2.60;73.85;93322.20;1860388;77;21141;-78
2021/01/11 09:19:17;;;;;;;23.87;14.30;;;;;;;-2.59;73.84;93321.69;1845709;77;21359;-79
2021/01/11 09:21:47;;;;;;;20.93;12.60;;;;;;;-2.62;73.53;93317.77;1875311;74;21164;-78
2021/01/11 09:24:15;;;;;;;21.57;12.57;;;;;;;-2.63;73.39;93316.73;1890732;74;21226;-80
2021/01/11 09:26:43;;;;;;;25.40;13.60;;;;;;;-2.67;73.43;93315.27;1857582;77;21901;-81
2021/01/11 09:29:11;;;;;;;26.10;13.23;;;;;;;-2.71;73.47;93312.98;1840309;77;21169;-79
2021/01/11 09:31:39;;;;;;;21.90;12.30;;;;;;;-2.71;73.09;93315.11;1833561;77;21392;-83
2021/01/11 09:34:07;;;;;;;26.77;16.47;;;;;;;-2.70;73.18;93307.91;1783395;79;21728;-80
2021/01/11 09:36:38;;;;;;;22.83;13.63;;;;;;;-2.68;73.56;93307.03;1815099;78;21633;-82
2021/01/11 09:39:08;;;;;;;25.40;14.63;;;;;;;-2.59;73.54;93293.17;1838844;76;21188;-80
2021/01/11 09:41:39;;;;;;;24.47;15.07;;;;;;;-2.51;73.50;93298.25;1872526;76;21221;-80
2021/01/11 09:44:07;;;;;;;20.87;11.80;;;;;;;-2.43;73.43;93296.67;1836469;77;21364;-82
2021/01/11 09:46:49;;;;;;;20.13;11.20;;;;;;;-2.33;73.32;93295.80;1891713;75;21183;-83
2021/01/11 09:49:17;;;;;;;18.57;11.43;;;;;;;-2.23;73.01;93291.44;1887023;75;21131;-78
2021/01/11 09:51:44;;;;;;;27.43;14.43;;;;;;;-2.14;72.52;93288.77;1873374;76;21176;-83
2021/01/11 09:54:12;;;;;;;23.37;13.00;;;;;;;-2.04;72.60;93283.07;1863702;76;21181;-79
2021/01/11 09:56:41;;;;;;;17.87;10.70;;;;;;;-1.94;72.04;93284.61;1847869;77;21692;-80
2021/01/11 09:59:11;;;;;;;18.83;11.93;;;;;;;-1.87;71.96;93279.57;1890475;74;21211;-80
2021/01/11 10:05:05;;;;;;;19.07;11.88;;;;;;;-1.75;71.29;93285.55;1877057;75;21096;-85
2021/01/11 10:07:33;;;;;;;21.07;13.18;;;;;;;-1.67;70.94;93278.61;1844402;75;21412;-81
2021/01/11 10:10:01;;;;;;;25.37;16.33;;;;;;;-1.67;70.27;93281.28;1854536;75;21188;-80
2021/01/11 10:12:36;;;;;;;23.00;13.97;;;;;;;-1.69;70.30;93280.28;1866043;75;21173;-78
2021/01/11 10:15:05;;;;;;;17.90;11.87;;;;;;;-1.69;70.35;93278.14;1842829;76;21212;-82
2021/01/11 10:17:33;;;;;;;22.57;13.00;;;;;;;-1.69;69.94;93277.61;1875080;76;21144;-81
2021/01/11 10:20:01;;;;;;;22.50;12.73;;;;;;;-1.74;69.90;93274.55;1843052;76;21713;-77
2021/01/11 10:22:29;;;;;;;24.37;13.70;;;;;;;-1.79;69.89;93275.30;1882537;75;21602;-80
2021/01/11 10:24:57;;;;;;;22.47;13.70;;;;;;;-1.80;69.55;93270.52;1886800;75;21137;-83
2021/01/11 10:27:24;;;;;;;21.45;12.20;;;;;;;-1.81;69.62;93268.94;1863019;76;21177;-82
2021/01/11 10:29:53;;;;;;;19.00;11.40;;;;;;;-1.83;69.35;93269.83;1868558;76;21406;-81
2021/01/11 10:32:21;;;;;;;22.00;12.13;;;;;;;-1.88;69.30;93271.35;1848255;76;21223;-81
2021/01/11 10:34:49;;;;;;;25.47;14.60;;;;;;;-1.91;69.67;93266.66;1871838;74;21188;-83
2021/01/11 10:37:17;;;;;;;32.67;16.97;;;;;;;-1.93;69.80;93260.08;1857881;75;21149;-79
2021/01/11 10:39:44;;;;;;;21.43;12.13;;;;;;;-1.94;70.29;93262.52;1844807;75;21140;-81
2021/01/11 10:42:12;;;;;;;24.43;14.28;;;;;;;-1.91;70.19;93252.55;1907637;75;21267;-80
2021/01/11 10:44:39;;;;;;;22.13;14.30;;;;;;;-1.89;70.05;93251.11;1867996;76;21332;-82
2021/01/11 10:47:07;;;;;;;19.35;12.95;;;;;;;-1.81;70.15;93248.95;1860130;76;21421;-83
2021/01/11 10:49:37;;;;;;;18.60;11.70;;;;;;;-1.74;70.15;93250.56;1892038;75;21155;-82
2021/01/11 10:52:06;;;;;;;21.15;12.03;;;;;;;-1.68;69.75;93245.84;1892300;75;21132;-84
2021/01/11 10:54:34;;;;;;;28.35;17.45;;;;;;;-1.60;69.69;93251.67;1865075;75;21194;-83
2021/01/11 10:57:01;;;;;;;24.30;13.97;;;;;;;-1.52;69.35;93242.06;1858473;77;21205;-81
2021/01/11 10:59:31;;;;;;;18.20;11.50;;;;;;;-1.48;69.18;93238.97;1746079;78;21229;-84
2021/01/11 11:01:59;;;;;;;18.50;12.47;;;;;;;-1.47;68.79;93241.33;1855204;75;21163;-85
2021/01/11 11:04:27;;;;;;;20.23;12.00;;;;;;;-1.46;68.56;93238.11;1873386;75;21128;-78
2021/01/11 11:06:59;;;;;;;23.52;12.63;;;;;;;-1.39;68.73;93238.38;1866924;74;21203;-83
2021/01/11 11:09:27;;;;;;;17.75;10.70;;;;;;;-1.34;68.51;93235.51;1890364;75;21435;-79
2021/01/11 11:11:55;;;;;;;18.80;11.30;;;;;;;-1.27;68.14;93235.77;1842385;77;22091;-78
2021/01/11 11:14:23;;;;;;;15.65;9.73;;;;;;;-1.24;67.70;93231.69;1881874;75;21673;-82
2021/01/11 11:16:55;;;;;;;15.83;10.88;;;;;;;-1.21;67.81;93233.68;1831213;77;21167;-79
2021/01/11 11:19:23;;;;;;;22.58;12.37;;;;;;;-1.18;67.80;93225.03;1853110;76;21173;-83
2021/01/11 11:21:51;;;;;;;23.32;12.58;;;;;;;-1.15;67.51;93216.94;1851402;77;21189;-78
2021/01/11 11:24:19;;;;;;;22.02;12.58;;;;;;;-1.14;67.14;93217.93;1820143;77;21416;-82
2021/01/11 11:26:47;;;;;;;22.30;12.80;;;;;;;-1.11;67.19;93217.84;1813271;78;21190;-86
2021/01/11 11:29:17;;;;;;;19.48;11.70;;;;;;;-1.08;67.00;93213.19;1808878;78;21174;-82
2021/01/11 11:31:46;;;;;;;20.68;12.15;;;;;;;-1.11;67.11;93211.95;1809657;78;22198;-81
2021/01/11 11:34:14;;;;;;;21.55;12.25;;;;;;;-1.12;67.16;93209.62;1810941;79;21130;-80
2021/01/11 11:36:41;;;;;;;19.95;11.57;;;;;;;-1.10;67.22;93210.05;1810467;78;21274;-78
2021/01/11 11:39:11;;;;;;;17.87;11.15;;;;;;;-1.06;67.41;93200.29;1808974;79;21245;-80
2021/01/11 11:41:41;;;;;;;20.20;12.13;;;;;;;-1.01;67.46;93198.21;1812813;77;21695;-79